Time;durP1;ratioP1;P1;durP2;ratioP2;P2;SDS_P1;SDS_P2;PMS_P1;PMS_P2;Temp;Humidity;BMP_temperature;BMP_pressure;BME280_temperature;BME280_humidity;BME280_pressure;Samples;Min_cycle;Max_cycle;Signal;HPM_P1;HPM_P2
2021/03/02 00:01:04;;;;;;;;;;;;;;;8.56;46.90;103039.09;6132434;23;19932;-76
2021/03/02 00:03:33;;;;;;;;;;;;;;;8.56;46.91;103038.19;6128621;23;19931;-76
2021/03/02 00:06:00;;;;;;;;;;;;;;;8.55;47.09;103029.41;6129810;23;19920;-76
2021/03/02 00:08:28;;;;;;;;;;;;;;;8.53;46.86;103028.47;6132532;23;20011;-78
2021/03/02 00:10:58;;;;;;;;;;;;;;;8.51;46.78;103024.94;6131770;23;19932;-77
2021/03/02 00:13:28;;;;;;;;;;;;;;;8.53;47.13;103035.50;6131730;23;19927;-77
2021/03/02 00:15:57;;;;;;;;;;;;;;;8.50;47.46;103033.69;6131492;23;20097;-77
2021/03/02 00:18:27;;;;;;;;;;;;;;;8.50;47.16;103033.69;6128293;23;19929;-77
2021/03/02 00:21:04;;;;;;;;;;;;;;;8.49;47.38;103037.19;6131953;23;19925;-77
2021/03/02 00:24:05;;;;;;;;;;;;;;;8.46;47.72;103032.75;6100128;23;19927;-77
2021/03/02 00:26:54;;;;;;;;;;;;;;;8.46;47.55;103038.03;6154602;23;19925;-77
2021/03/02 00:29:22;;;;;;;;;;;;;;;8.45;47.35;103028.31;6130399;23;19973;-77
2021/03/02 00:31:50;;;;;;;;;;;;;;;8.45;48.03;103032.69;6128008;23;19928;-77
2021/03/02 00:34:17;;;;;;;;;;;;;;;8.43;47.78;103037.94;6127651;23;19999;-78
2021/03/02 00:36:46;;;;;;;;;;;;;;;8.42;47.93;103041.44;6131308;23;20353;-77
2021/03/02 00:39:13;;;;;;;;;;;;;;;8.40;48.26;103032.59;6131869;23;19997;-77
2021/03/02 00:41:40;;;;;;;;;;;;;;;8.40;47.60;103039.63;6154160;23;19925;-77
2021/03/02 00:44:07;;;;;;;;;;;;;;;8.38;48.24;103039.63;6132414;23;19927;-77
2021/03/02 00:46:35;;;;;;;;;;;;;;;8.37;47.78;103029.91;6127598;23;19940;-77
2021/03/02 00:49:04;;;;;;;;;;;;;;;8.36;48.22;103030.78;6151504;23;20294;-77
2021/03/02 00:51:31;;;;;;;;;;;;;;;8.34;48.32;103024.59;6128793;23;19925;-76
2021/03/02 00:53:59;;;;;;;;;;;;;;;8.35;48.27;103025.47;6131663;23;19936;-76
2021/03/02 00:56:26;;;;;;;;;;;;;;;8.33;48.66;103032.50;6131657;23;19949;-77
2021/03/02 00:58:55;;;;;;;;;;;;;;;8.31;48.17;103030.69;6127722;23;19925;-76
2021/03/02 01:01:22;;;;;;;;;;;;;;;8.30;48.70;103034.19;6124669;23;19930;-76
2021/03/02 01:03:49;;;;;;;;;;;;;;;8.30;48.25;103034.19;6154499;23;19932;-77
2021/03/02 01:06:17;;;;;;;;;;;;;;;8.35;48.64;103031.63;6130870;23;19925;-76
2021/03/02 01:08:46;;;;;;;;;;;;;;;8.54;47.02;103030.25;6131209;23;19928;-76
2021/03/02 01:11:14;;;;;;;;;;;;;;;8.61;45.96;103025.97;6132402;23;19955;-77
2021/03/02 01:13:42;;;;;;;;;;;;;;;8.68;44.62;103026.97;6126388;23;19931;-77
2021/03/02 01:16:09;;;;;;;;;;;;;;;8.78;43.45;103029.78;6126884;23;19947;-77
2021/03/02 01:18:36;;;;;;;;;;;;;;;8.86;42.79;103023.75;6131334;23;19921;-77
2021/03/02 01:21:03;;;;;;;;;;;;;;;8.90;42.42;103020.28;6131579;23;19937;-77
2021/03/02 01:23:31;;;;;;;;;;;;;;;8.87;41.93;103021.13;6154597;23;19925;-77
2021/03/02 01:25:58;;;;;;;;;;;;;;;8.76;43.21;103020.03;6130913;23;20010;-77
2021/03/02 01:28:26;;;;;;;;;;;;;;;8.71;43.68;103022.63;6123589;23;19928;-77
2021/03/02 01:30:53;;;;;;;;;;;;;;;8.69;44.42;103016.44;6125884;23;19925;-76
2021/03/02 01:33:20;;;;;;;;;;;;;;;8.77;43.74;103006.91;6133011;23;19952;-76
2021/03/02 01:35:47;;;;;;;;;;;;;;;8.82;43.52;102998.16;6129814;23;20229;-77
2021/03/02 01:38:14;;;;;;;;;;;;;;;8.91;42.03;102998.31;6132123;23;19925;-77
2021/03/02 01:40:41;;;;;;;;;;;;;;;8.94;41.80;103004.53;6131961;23;20275;-76
2021/03/02 01:43:09;;;;;;;;;;;;;;;8.96;40.92;103000.16;6151192;23;19924;-77
2021/03/02 01:45:37;;;;;;;;;;;;;;;9.00;40.40;103002.84;6134301;23;19921;-76
2021/03/02 01:48:04;;;;;;;;;;;;;;;9.04;40.09;102999.38;6158414;23;19925;-76
2021/03/02 01:50:31;;;;;;;;;;;;;;;9.08;39.75;102999.44;6130947;23;19921;-77
2021/03/02 01:52:58;;;;;;;;;;;;;;;9.08;39.52;103001.22;6132511;23;19936;-77
2021/03/02 01:55:26;;;;;;;;;;;;;;;9.09;39.10;103005.63;6130598;23;19921;-76
2021/03/02 01:57:53;;;;;;;;;;;;;;;9.11;39.39;102999.50;6128777;23;19928;-76
2021/03/02 02:00:22;;;;;;;;;;;;;;;9.11;38.99;103007.44;6135528;23;19925;-76
2021/03/02 02:02:56;;;;;;;;;;;;;;;8.95;39.46;103002.78;6133614;23;19921;-77
2021/03/02 02:05:24;;;;;;;;;;;;;;;8.79;40.02;103007.81;6132862;23;19941;-76
2021/03/02 02:07:53;;;;;;;;;;;;;;;8.69;40.38;102999.72;6131848;23;19985;-77
2021/03/02 02:10:37;;;;;;;;;;;;;;;8.59;41.37;102988.13;6129096;23;19921;-77
2021/03/02 02:13:07;;;;;;;;;;;;;;;8.53;41.87;102988.03;6130062;23;19928;-77
2021/03/02 02:15:36;;;;;;;;;;;;;;;8.49;42.07;102979.16;6133577;23;19999;-76
2021/03/02 02:18:05;;;;;;;;;;;;;;;8.44;43.33;102972.88;6131224;23;19929;-76
2021/03/02 02:20:39;;;;;;;;;;;;;;;8.41;43.20;102980.75;6132602;23;19956;-77
2021/03/02 02:23:10;;;;;;;;;;;;;;;8.37;43.59;102977.16;6130625;23;20322;-77
2021/03/02 02:25:50;;;;;;;;;;;;;;;8.30;43.58;102976.19;6126579;23;19945;-76
2021/03/02 02:28:20;;;;;;;;;;;;;;;8.32;44.00;102981.47;6132020;23;19921;-77
2021/03/02 02:30:48;;;;;;;;;;;;;;;8.29;44.36;102970.88;6132105;23;19925;-76
2021/03/02 02:33:16;;;;;;;;;;;;;;;8.26;44.81;102973.44;6134521;23;19945;-77
2021/03/02 02:35:46;;;;;;;;;;;;;;;8.24;44.86;102981.31;6131402;23;20724;-77
2021/03/02 02:38:15;;;;;;;;;;;;;;;8.23;45.24;102976.03;6129790;23;19920;-77
2021/03/02 02:40:42;;;;;;;;;;;;;;;8.21;45.28;102973.38;6127263;23;19925;-77
2021/03/02 02:43:10;;;;;;;;;;;;;;;8.20;45.95;102982.13;6132088;23;19925;-77
2021/03/02 02:45:39;;;;;;;;;;;;;;;8.18;46.21;102977.69;6133559;23;19961;-76
2021/03/02 02:48:07;;;;;;;;;;;;;;;8.15;46.12;102973.25;6132885;23;19925;-76
2021/03/02 02:50:34;;;;;;;;;;;;;;;8.15;46.45;102978.53;6132790;23;19932;-77
2021/03/02 02:53:01;;;;;;;;;;;;;;;8.13;46.16;102980.25;6127993;23;20309;-77
2021/03/02 02:55:32;;;;;;;;;;;;;;;8.11;46.89;102974.06;6129506;23;20355;-77
2021/03/02 02:58:00;;;;;;;;;;;;;;;8.12;46.75;102970.56;6130628;23;20338;-77
2021/03/02 03:00:33;;;;;;;;;;;;;;;8.10;47.01;102980.19;6132617;23;19939;-76
2021/03/02 03:03:01;;;;;;;;;;;;;;;8.06;46.97;102979.22;6134378;23;19921;-78
2021/03/02 03:05:30;;;;;;;;;;;;;;;8.06;46.95;102978.34;6128582;23;19927;-77
2021/03/02 03:08:02;;;;;;;;;;;;;;;8.04;47.21;102980.97;6129962;23;19931;-77
2021/03/02 03:10:30;;;;;;;;;;;;;;;8.03;47.27;102980.94;6132789;23;19920;-77
2021/03/02 03:13:00;;;;;;;;;;;;;;;8.00;47.44;102975.59;6131272;23;19931;-77
2021/03/02 03:15:27;;;;;;;;;;;;;;;7.99;47.65;102974.72;6131997;23;19929;-77
2021/03/02 03:17:55;;;;;;;;;;;;;;;7.97;47.81;102977.34;6133774;23;19921;-77
2021/03/02 03:20:26;;;;;;;;;;;;;;;7.97;47.84;102979.97;6152336;23;19921;-76
2021/03/02 03:22:53;;;;;;;;;;;;;;;7.95;47.86;102970.25;6128156;23;19929;-77
2021/03/02 03:25:20;;;;;;;;;;;;;;;7.94;47.79;102966.72;6131825;23;19948;-76
2021/03/02 03:27:50;;;;;;;;;;;;;;;7.92;48.18;102972.84;6131730;23;20328;-76
2021/03/02 03:30:17;;;;;;;;;;;;;;;7.91;48.38;102973.69;6156047;23;20424;-77
2021/03/02 03:32:46;;;;;;;;;;;;;;;7.90;48.29;102972.78;6131848;23;19925;-76
2021/03/02 03:35:14;;;;;;;;;;;;;;;7.89;48.34;102967.50;6125325;23;19948;-77
2021/03/02 03:37:42;;;;;;;;;;;;;;;7.88;48.46;102973.63;6128606;23;19942;-76
2021/03/02 03:40:10;;;;;;;;;;;;;;;7.86;48.73;102970.97;6134266;23;20569;-77
2021/03/02 03:42:37;;;;;;;;;;;;;;;7.86;48.46;102973.59;6131020;23;19921;-77
2021/03/02 03:45:04;;;;;;;;;;;;;;;7.84;48.57;102969.16;6156269;23;19973;-77
2021/03/02 03:47:31;;;;;;;;;;;;;;;7.82;48.71;102963.84;6131161;23;19944;-76
2021/03/02 03:49:58;;;;;;;;;;;;;;;7.81;49.03;102962.06;6125001;23;19928;-77
2021/03/02 03:52:25;;;;;;;;;;;;;;;7.80;49.57;102957.66;6132510;23;19921;-77
2021/03/02 03:54:55;;;;;;;;;;;;;;;7.79;48.82;102961.16;6133416;23;19928;-76
2021/03/02 03:57:23;;;;;;;;;;;;;;;7.78;49.31;102962.91;6131804;23;20335;-77
2021/03/02 03:59:50;;;;;;;;;;;;;;;7.77;49.09;102965.50;6132553;23;19921;-76
2021/03/02 04:02:17;;;;;;;;;;;;;;;7.74;49.11;102963.69;6129359;23;20315;-76
2021/03/02 04:04:44;;;;;;;;;;;;;;;7.74;49.50;102966.34;6127372;23;19925;-76
2021/03/02 04:07:11;;;;;;;;;;;;;;;7.82;49.01;102964.72;6134075;23;19960;-77
2021/03/02 04:09:38;;;;;;;;;;;;;;;7.96;47.42;102964.13;6131275;23;20006;-76
2021/03/02 04:12:09;;;;;;;;;;;;;;;8.03;46.40;102952.81;6130779;23;19924;-76
2021/03/02 04:14:38;;;;;;;;;;;;;;;8.16;44.74;102953.94;6132045;23;19925;-76
2021/03/02 04:17:05;;;;;;;;;;;;;;;8.22;44.06;102963.69;6128943;23;19945;-76
2021/03/02 04:19:34;;;;;;;;;;;;;;;8.29;43.51;102958.56;6128503;23;19925;-76
2021/03/02 04:22:01;;;;;;;;;;;;;;;8.36;42.84;102967.47;6155651;23;20496;-76
2021/03/02 04:24:28;;;;;;;;;;;;;;;8.38;42.59;102956.94;6131485;23;19932;-77
2021/03/02 04:26:56;;;;;;;;;;;;;;;8.40;42.35;102957.88;6155137;23;19932;-76
2021/03/02 04:29:23;;;;;;;;;;;;;;;8.28;42.63;102962.06;6129664;23;19929;-76
2021/03/02 04:31:50;;;;;;;;;;;;;;;8.19;43.42;102961.03;6129072;23;19939;-76
2021/03/02 04:34:17;;;;;;;;;;;;;;;8.15;44.19;102960.06;6132727;23;20291;-77
2021/03/02 04:36:45;;;;;;;;;;;;;;;8.13;45.29;102969.72;6131577;23;19921;-77
2021/03/02 04:39:12;;;;;;;;;;;;;;;8.21;43.96;102967.19;6156823;23;19925;-77
2021/03/02 04:41:39;;;;;;;;;;;;;;;8.25;43.32;102962.00;6132799;23;19925;-77
2021/03/02 04:44:06;;;;;;;;;;;;;;;8.33;42.88;102959.53;6131081;23;19921;-77
2021/03/02 04:46:34;;;;;;;;;;;;;;;8.36;42.19;102961.31;6128351;23;19929;-76
2021/03/02 04:49:01;;;;;;;;;;;;;;;8.37;42.00;102960.47;6131724;23;19921;-77
2021/03/02 04:51:28;;;;;;;;;;;;;;;8.46;40.79;102963.28;6132224;23;19945;-77
2021/03/02 04:53:55;;;;;;;;;;;;;;;8.46;40.75;102963.28;6156819;23;19924;-78
2021/03/02 04:56:22;;;;;;;;;;;;;;;8.49;40.08;102973.00;6130425;23;19943;-78
2021/03/02 04:58:49;;;;;;;;;;;;;;;8.46;40.24;102968.56;6125454;23;19940;-78
2021/03/02 05:01:16;;;;;;;;;;;;;;;8.47;39.57;102965.94;6152524;23;19943;-77
2021/03/02 05:03:44;;;;;;;;;;;;;;;8.50;39.93;102966.84;6130717;23;19931;-77
2021/03/02 05:06:10;;;;;;;;;;;;;;;8.45;39.84;102967.66;6130194;23;19932;-81
2021/03/02 05:08:37;;;;;;;;;;;;;;;8.27;40.54;102973.50;6131210;23;19972;-80
2021/03/02 05:11:04;;;;;;;;;;;;;;;8.14;40.87;102974.09;6129827;23;19940;-79
2021/03/02 05:13:31;;;;;;;;;;;;;;;8.04;42.00;102969.56;6127092;23;20332;-79
2021/03/02 05:16:09;;;;;;;;;;;;;;;7.96;42.26;102964.13;6128502;23;19921;-81
2021/03/02 05:18:37;;;;;;;;;;;;;;;7.93;42.43;102969.31;6131324;23;19921;-79
2021/03/02 05:21:09;;;;;;;;;;;;;;;7.92;44.59;102971.09;6129620;23;19921;-77
2021/03/02 05:23:36;;;;;;;;;;;;;;;7.88;45.12;102966.63;6130611;23;19921;-78
2021/03/02 05:26:03;;;;;;;;;;;;;;;7.84;45.24;102967.41;6131142;23;20025;-77
2021/03/02 05:28:31;;;;;;;;;;;;;;;7.82;45.60;102970.00;6125256;23;19999;-77
2021/03/02 05:30:58;;;;;;;;;;;;;;;7.79;45.97;102974.34;6130304;23;19979;-77
2021/03/02 05:33:25;;;;;;;;;;;;;;;7.75;46.09;102975.16;6156005;23;19953;-77
2021/03/02 05:35:52;;;;;;;;;;;;;;;7.74;46.28;102976.00;6132344;23;19932;-77
2021/03/02 05:38:20;;;;;;;;;;;;;;;7.69;46.99;102969.75;6131659;23;19944;-77
2021/03/02 05:40:47;;;;;;;;;;;;;;;7.69;46.74;102977.66;6130372;23;19921;-77
2021/03/02 05:43:17;;;;;;;;;;;;;;;7.66;47.03;102983.75;6128754;23;19921;-77
2021/03/02 05:45:44;;;;;;;;;;;;;;;7.65;47.02;102982.84;6131312;23;19925;-77
2021/03/02 05:48:11;;;;;;;;;;;;;;;7.63;47.53;102986.31;6157494;23;19928;-77
2021/03/02 05:50:38;;;;;;;;;;;;;;;7.62;47.48;102989.81;6130153;23;19929;-77
2021/03/02 05:53:06;;;;;;;;;;;;;;;7.61;47.46;102994.16;6127387;23;19949;-77
2021/03/02 05:55:37;;;;;;;;;;;;;;;7.59;47.85;102984.47;6126813;23;19925;-77
2021/03/02 05:58:04;;;;;;;;;;;;;;;7.58;48.18;102991.47;6129557;23;19944;-77
2021/03/02 06:00:31;;;;;;;;;;;;;;;7.58;48.16;102998.50;6132414;23;19925;-77
2021/03/02 06:02:58;;;;;;;;;;;;;;;7.55;48.54;102995.78;6133403;23;19920;-77
2021/03/02 06:05:25;;;;;;;;;;;;;;;7.57;48.47;103012.53;6155341;23;19928;-77
2021/03/02 06:07:52;;;;;;;;;;;;;;;7.54;48.61;103012.44;6152698;23;19925;-77
2021/03/02 06:10:19;;;;;;;;;;;;;;;7.54;48.36;103015.06;6153072;23;19921;-77
2021/03/02 06:12:55;;;;;;;;;;;;;;;7.54;48.86;103015.06;6130989;23;19936;-76
2021/03/02 06:15:23;;;;;;;;;;;;;;;7.52;48.72;103011.53;6131900;23;20199;-77
2021/03/02 06:18:10;;;;;;;;;;;;;;;7.51;48.69;103017.66;6131540;23;19949;-76
2021/03/02 06:20:38;;;;;;;;;;;;;;;7.50;48.83;103005.34;6131404;23;19932;-79
2021/03/02 06:23:20;;;;;;;;;;;;;;;7.49;48.68;103015.00;6124875;23;19976;-77
2021/03/02 06:25:48;;;;;;;;;;;;;;;7.50;48.67;103023.78;6134099;23;19925;-78
2021/03/02 06:28:31;;;;;;;;;;;;;;;7.48;49.00;103024.66;6132868;23;19924;-77
2021/03/02 06:30:58;;;;;;;;;;;;;;;7.48;48.93;103031.66;6133814;23;19920;-77
2021/03/02 06:33:25;;;;;;;;;;;;;;;7.47;49.51;103028.13;6133400;23;20366;-76
2021/03/02 06:35:52;;;;;;;;;;;;;;;7.47;49.13;103029.84;6128084;23;19940;-76
2021/03/02 06:38:26;;;;;;;;;;;;;;;7.49;49.12;103030.81;6128695;23;19924;-80
2021/03/02 06:40:53;;;;;;;;;;;;;;;7.48;49.04;103027.28;6134763;23;19973;-79
2021/03/02 06:43:31;;;;;;;;;;;;;;;7.48;49.35;103032.56;6133070;23;20321;-75
2021/03/02 06:45:59;;;;;;;;;;;;;;;7.48;49.45;103032.56;6134311;23;19949;-77
2021/03/02 06:48:25;;;;;;;;;;;;;;;7.51;49.24;103026.44;6158513;23;19924;-77
2021/03/02 06:50:53;;;;;;;;;;;;;;;7.54;49.23;103031.78;6125723;23;19928;-75
2021/03/02 06:53:20;;;;;;;;;;;;;;;7.56;49.51;103042.34;6131778;23;19944;-75
2021/03/02 06:55:47;;;;;;;;;;;;;;;7.72;48.28;103035.66;6132630;23;19932;-77
2021/03/02 06:58:20;;;;;;;;;;;;;;;7.87;46.77;103040.38;6133781;23;20012;-76
2021/03/02 07:01:01;;;;;;;;;;;;;;;8.03;45.53;103046.84;6134698;23;19925;-78
2021/03/02 07:03:29;;;;;;;;;;;;;;;8.13;44.36;103052.31;6130528;23;19931;-78
2021/03/02 07:06:00;;;;;;;;;;;;;;;8.24;44.04;103054.28;6130276;23;19921;-77
2021/03/02 07:08:27;;;;;;;;;;;;;;;8.29;43.02;103047.34;6157266;23;19921;-78
2021/03/02 07:10:55;;;;;;;;;;;;;;;8.36;42.20;103057.16;6131520;23;19928;-78
2021/03/02 07:13:22;;;;;;;;;;;;;;;8.40;42.21;103058.09;6132182;23;19945;-78
2021/03/02 07:15:51;;;;;;;;;;;;;;;8.44;41.43;103057.28;6131469;23;19925;-78
2021/03/02 07:18:20;;;;;;;;;;;;;;;8.39;42.41;103065.13;6129214;23;19948;-76
2021/03/02 07:20:49;;;;;;;;;;;;;;;8.34;43.92;103066.78;6127882;23;19921;-77
2021/03/02 07:23:20;;;;;;;;;;;;;;;8.33;44.47;103069.41;6157653;23;19972;-77
2021/03/02 07:25:48;;;;;;;;;;;;;;;8.35;44.33;103070.31;6133280;23;19924;-79
2021/03/02 07:28:16;;;;;;;;;;;;;;;8.44;43.50;103071.38;6133062;23;19925;-76
2021/03/02 07:30:47;;;;;;;;;;;;;;;8.54;42.68;103066.31;6156837;23;19929;-77
2021/03/02 07:33:16;;;;;;;;;;;;;;;8.59;41.74;103067.28;6127323;23;19925;-76
2021/03/02 07:35:45;;;;;;;;;;;;;;;8.64;41.21;103071.78;6130411;23;20516;-77
2021/03/02 07:38:17;;;;;;;;;;;;;;;8.66;40.57;103071.78;6133244;23;19925;-77
2021/03/02 07:40:48;;;;;;;;;;;;;;;8.72;40.45;103077.19;6132719;23;20041;-77
2021/03/02 07:43:27;;;;;;;;;;;;;;;8.77;39.94;103077.25;6155985;23;19928;-77
2021/03/02 07:45:55;;;;;;;;;;;;;;;8.81;39.15;103076.44;6151418;23;19928;-77
2021/03/02 07:48:29;;;;;;;;;;;;;;;8.87;39.26;103081.84;6130380;23;19924;-77
2021/03/02 07:51:29;;;;;;;;;;;;;;;8.89;38.89;103077.47;6130250;23;19936;-77
2021/03/02 07:54:14;;;;;;;;;;;;;;;8.94;38.80;103088.09;6134180;23;19925;-77
2021/03/02 07:56:41;;;;;;;;;;;;;;;8.93;38.52;103088.97;6132114;23;19957;-77
2021/03/02 07:59:18;;;;;;;;;;;;;;;8.82;39.11;103094.06;6127851;23;19933;-77
2021/03/02 08:02:15;;;;;;;;;;;;;;;8.74;40.47;103086.00;6126096;23;19925;-77
2021/03/02 08:04:44;;;;;;;;;;;;;;;8.64;40.64;103092.88;6019145;23;20927;-77
2021/03/02 08:07:18;;;;;;;;;;;;;;;8.59;41.93;103091.91;6106811;23;19924;-77
2021/03/02 08:09:46;;;;;;;;;;;;;;;8.56;42.28;103093.59;6156804;23;19948;-77
2021/03/02 08:12:27;;;;;;;;;;;;;;;8.57;42.05;103109.44;6131497;23;19948;-77
2021/03/02 08:14:54;;;;;;;;;;;;;;;8.53;42.56;103104.09;6127711;23;19931;-77
2021/03/02 08:17:22;;;;;;;;;;;;;;;8.53;43.12;103112.03;6128905;23;19980;-77
2021/03/02 08:19:49;;;;;;;;;;;;;;;8.56;43.17;103114.69;6156162;23;20011;-77
2021/03/02 08:22:35;;;;;;;;;;;;;;;8.60;42.92;103119.16;6131032;23;19921;-77
2021/03/02 08:25:04;;;;;;;;;;;;;;;8.66;43.46;103128.97;6131616;23;19940;-77
2021/03/02 08:27:36;;;;;;;;;;;;;;;8.66;43.72;103124.56;6125997;23;19921;-77
2021/03/02 08:30:05;;;;;;;;;;;;;;;8.69;43.86;103129.91;6125974;23;19933;-77
2021/03/02 08:32:32;;;;;;;;;;;;;;;8.70;43.95;103121.13;6131343;23;19924;-77
2021/03/02 08:35:02;;;;;;;;;;;;;;;8.74;43.89;103120.31;6132172;23;20001;-77
2021/03/02 08:37:39;;;;;;;;;;;;;;;8.73;44.03;103131.75;6154294;23;20568;-79
2021/03/02 08:40:09;;;;;;;;;;;;;;;8.77;44.43;103128.31;6155417;23;20096;-77
2021/03/02 08:42:36;;;;;;;;;;;;;;;8.75;44.75;103129.16;6128435;23;19935;-77
2021/03/02 08:45:04;;;;;;;;;;;;;;;8.71;44.91;103130.81;6127660;23;19924;-78
2021/03/02 08:47:31;;;;;;;;;;;;;;;8.76;44.99;103138.81;6155195;23;19927;-77
2021/03/02 08:49:59;;;;;;;;;;;;;;;8.75;44.95;103129.16;6133084;23;19924;-77
2021/03/02 08:52:35;;;;;;;;;;;;;;;8.78;44.96;103137.09;6131532;23;19928;-77
2021/03/02 08:55:03;;;;;;;;;;;;;;;8.83;45.29;103143.34;6130768;23;19945;-77
2021/03/02 08:57:31;;;;;;;;;;;;;;;8.86;45.41;103139.88;6126187;23;19980;-77
2021/03/02 08:59:58;;;;;;;;;;;;;;;8.86;45.17;103132.84;6131511;23;19921;-77
2021/03/02 09:02:25;;;;;;;;;;;;;;;8.91;45.50;103132.94;6134165;23;19927;-77
2021/03/02 09:04:57;;;;;;;;;;;;;;;8.98;45.56;103132.16;6131401;23;19972;-77
2021/03/02 09:07:24;;;;;;;;;;;;;;;9.03;45.27;103132.25;6156525;23;19936;-78
2021/03/02 09:09:52;;;;;;;;;;;;;;;9.10;44.92;103136.78;6128771;23;19925;-77
2021/03/02 09:12:21;;;;;;;;;;;;;;;9.06;45.49;103137.59;6125762;23;19924;-77
2021/03/02 09:14:49;;;;;;;;;;;;;;;9.06;45.67;103130.56;6132855;23;19934;-78
2021/03/02 09:17:15;;;;;;;;;;;;;;;9.08;45.83;103141.16;6131916;23;19987;-77
2021/03/02 09:19:43;;;;;;;;;;;;;;;9.10;45.90;103149.97;6131741;23;19931;-77
2021/03/02 09:22:10;;;;;;;;;;;;;;;9.10;45.86;103139.41;6132321;23;19928;-78
2021/03/02 09:24:41;;;;;;;;;;;;;;;9.13;45.59;103129.78;6127975;23;19925;-77
2021/03/02 09:27:08;;;;;;;;;;;;;;;9.18;45.36;103132.53;6126830;23;20012;-77
2021/03/02 09:29:38;;;;;;;;;;;;;;;9.21;45.47;103131.69;6130486;23;19925;-78
2021/03/02 09:32:07;;;;;;;;;;;;;;;9.22;45.91;103130.81;6131827;23;19925;-77
2021/03/02 09:34:35;;;;;;;;;;;;;;;9.19;46.16;103138.69;6156608;23;19929;-77
2021/03/02 09:37:04;;;;;;;;;;;;;;;9.24;46.09;103137.88;6130208;23;19996;-78
2021/03/02 09:39:31;;;;;;;;;;;;;;;9.26;45.63;103130.03;6127434;23;20569;-77
2021/03/02 09:41:59;;;;;;;;;;;;;;;9.31;45.28;103133.59;6128332;23;19925;-77
2021/03/02 09:44:50;;;;;;;;;;;;;;;;;;;;;
2021/03/02 10:19:04;;;;;;;;;;;;;;;9.96;41.02;103140.72;5727717;24;19932;-78
2021/03/02 10:21:41;;;;;;;;;;;;;;;9.96;41.93;103138.06;5891648;24;19945;-78
2021/03/02 10:24:16;;;;;;;;;;;;;;;10.03;41.84;103146.97;6047127;23;20003;-78
2021/03/02 10:26:42;;;;;;;;;;;;;;;10.14;40.56;103148.00;6133574;23;19945;-78
2021/03/02 10:29:11;;;;;;;;;;;;;;;10.27;39.65;103133.19;6130412;23;19925;-78
2021/03/02 10:31:42;;;;;;;;;;;;;;;10.38;38.72;103133.34;6133576;23;19927;-78
2021/03/02 10:34:10;;;;;;;;;;;;;;;10.43;38.16;103136.94;6153350;23;19924;-78
2021/03/02 10:36:40;;;;;;;;;;;;;;;10.52;37.96;103137.88;6154368;23;19925;-78
2021/03/02 10:39:09;;;;;;;;;;;;;;;10.54;37.86;103137.03;6134514;23;20420;-78
2021/03/02 10:41:38;;;;;;;;;;;;;;;10.57;36.91;103138.84;6158243;23;19921;-78
2021/03/02 10:44:15;;;;;;;;;;;;;;;10.62;37.02;103134.47;6158493;23;19945;-78
2021/03/02 10:54:24;;;;;;;;;;;;;;;10.61;38.49;103132.69;6133124;23;19921;-78
2021/03/02 10:56:54;;;;;;;;;;;;;;;10.62;38.46;103132.72;6134521;23;19939;-79
2021/03/02 10:59:29;;;;;;;;;;;;;;;10.56;39.09;103127.38;6132067;23;19925;-79
2021/03/02 11:01:57;;;;;;;;;;;;;;;10.58;39.26;103125.59;6128431;23;19925;-79
2021/03/02 11:04:28;;;;;;;;;;;;;;;10.59;39.38;103122.09;6152059;23;19925;-79
2021/03/02 11:06:55;;;;;;;;;;;;;;;10.59;39.99;103129.16;6157085;23;19921;-79
2021/03/02 11:09:21;;;;;;;;;;;;;;;10.56;40.48;103123.84;6131891;23;19975;-79
2021/03/02 11:11:49;;;;;;;;;;;;;;;10.70;40.22;103122.19;6130938;23;19929;-79
2021/03/02 11:14:16;;;;;;;;;;;;;;;10.63;40.30;103125.66;6131268;23;20339;-79
2021/03/02 11:16:43;;;;;;;;;;;;;;;10.67;40.57;103123.94;6128682;23;19920;-79
2021/03/02 11:19:10;;;;;;;;;;;;;;;10.70;40.85;103140.72;6128371;23;19924;-79
2021/03/02 11:21:40;;;;;;;;;;;;;;;10.76;40.91;103124.03;6132989;23;19927;-79
2021/03/02 11:24:06;;;;;;;;;;;;;;;10.86;40.93;103115.31;6133088;23;19980;-79
2021/03/02 11:26:33;;;;;;;;;;;;;;;10.98;40.76;103121.56;6130888;23;20362;-79
2021/03/02 11:29:01;;;;;;;;;;;;;;;11.03;40.83;103111.91;6130677;23;19971;-79
2021/03/02 11:31:28;;;;;;;;;;;;;;;11.00;41.17;103111.91;6127677;23;20911;-79
2021/03/02 11:33:56;;;;;;;;;;;;;;;11.01;41.42;103111.91;6129111;23;19959;-79
2021/03/02 11:36:23;;;;;;;;;;;;;;;11.11;41.24;103115.53;6131647;23;19948;-76
2021/03/02 11:38:50;;;;;;;;;;;;;;;11.04;41.65;103101.31;6133861;23;20342;-79
2021/03/02 11:41:17;;;;;;;;;;;;;;;10.98;41.85;103101.28;6131218;23;19921;-79
2021/03/02 11:43:44;;;;;;;;;;;;;;;11.00;42.12;103101.31;6129309;23;19925;-80
2021/03/02 11:46:18;;;;;;;;;;;;;;;10.96;42.14;103096.00;6127279;23;19931;-79
2021/03/02 11:53:49;;;;;;;;;;;;;;;;;;;;;
2021/03/02 12:00:50;;;;;;;;;;;;;;;11.07;42.64;103104.03;6125294;23;20094;-79
2021/03/02 12:03:22;;;;;;;;;;;;;;;11.14;42.70;103097.00;6133394;23;19948;-79
2021/03/02 12:05:49;;;;;;;;;;;;;;;11.12;42.95;103102.28;6134308;23;19972;-79
2021/03/02 12:08:18;;;;;;;;;;;;;;;11.11;42.95;103097.88;6131782;23;20003;-80
2021/03/02 12:10:44;;;;;;;;;;;;;;;11.09;43.27;103098.72;6134486;23;19921;-79
2021/03/02 12:13:13;;;;;;;;;;;;;;;11.11;42.89;103108.47;6127494;23;20270;-79
2021/03/02 12:15:41;;;;;;;;;;;;;;;11.06;43.48;103102.25;6129781;23;19927;-79
2021/03/02 12:18:08;;;;;;;;;;;;;;;11.01;43.55;103101.31;6131537;23;20310;-79
2021/03/02 12:20:37;;;;;;;;;;;;;;;11.04;43.57;103108.41;6131657;23;19925;-79
2021/03/02 12:23:04;;;;;;;;;;;;;;;11.05;43.60;103100.47;6131987;23;19929;-80
2021/03/02 12:25:31;;;;;;;;;;;;;;;11.23;42.91;103099.72;6126576;23;20007;-80
2021/03/02 12:27:58;;;;;;;;;;;;;;;11.27;43.07;103105.94;6123699;23;19925;-79
2021/03/02 12:30:25;;;;;;;;;;;;;;;11.26;43.41;103096.22;6131139;23;19925;-79
2021/03/02 12:32:53;;;;;;;;;;;;;;;11.18;43.66;103085.53;6128941;23;19932;-79
2021/03/02 12:35:20;;;;;;;;;;;;;;;11.11;43.90;103081.09;6131362;23;19925;-79
2021/03/02 12:37:49;;;;;;;;;;;;;;;11.09;43.73;103081.06;6130175;23;19932;-79
2021/03/02 12:40:16;;;;;;;;;;;;;;;11.15;44.09;103074.94;6123601;23;19932;-79
2021/03/02 12:42:43;;;;;;;;;;;;;;;11.25;43.71;103078.53;6124845;23;19948;-79
2021/03/02 12:45:10;;;;;;;;;;;;;;;11.20;44.03;103088.19;6130977;23;19969;-80
2021/03/02 12:47:37;;;;;;;;;;;;;;;11.15;44.20;103096.13;6155449;23;19975;-79
2021/03/02 12:50:08;;;;;;;;;;;;;;;11.21;44.02;103100.59;6131793;23;19928;-79
2021/03/02 12:52:35;;;;;;;;;;;;;;;11.12;44.01;103101.38;6131640;23;19925;-80
2021/03/02 12:55:05;;;;;;;;;;;;;;;11.15;43.92;103108.47;6124801;23;19936;-79
2021/03/02 12:57:32;;;;;;;;;;;;;;;11.07;44.52;103098.72;6123197;23;19975;-79
2021/03/02 12:59:59;;;;;;;;;;;;;;;11.05;44.53;103091.63;6131959;23;19925;-79
2021/03/02 13:02:29;;;;;;;;;;;;;;;10.99;44.61;103095.09;6154074;23;19921;-79
2021/03/02 13:04:58;;;;;;;;;;;;;;;11.06;44.69;103094.28;6156058;23;19925;-79
2021/03/02 13:07:27;;;;;;;;;;;;;;;11.00;44.88;103093.34;6154611;23;19921;-80
2021/03/02 13:09:57;;;;;;;;;;;;;;;10.95;45.18;103093.31;6126355;23;19924;-79
2021/03/02 13:12:25;;;;;;;;;;;;;;;11.00;43.80;103090.72;6130420;23;19946;-79
2021/03/02 13:14:52;;;;;;;;;;;;;;;11.08;42.54;103084.59;6128720;23;19928;-79
2021/03/02 13:17:19;;;;;;;;;;;;;;;11.13;42.03;103085.50;6132943;23;19952;-79
2021/03/02 13:19:47;;;;;;;;;;;;;;;11.15;40.83;103084.63;6127818;23;19925;-79
2021/03/02 13:22:15;;;;;;;;;;;;;;;11.18;40.52;103084.69;6126291;23;20465;-79
2021/03/02 13:24:42;;;;;;;;;;;;;;;11.20;39.61;103080.25;6149648;23;19984;-79
2021/03/02 13:27:11;;;;;;;;;;;;;;;11.23;39.25;103094.41;6132419;23;19921;-79
2021/03/02 13:29:42;;;;;;;;;;;;;;;11.23;38.86;103091.78;6130892;23;19925;-79
2021/03/02 13:32:12;;;;;;;;;;;;;;;11.25;38.37;103089.13;6131098;23;20560;-79
2021/03/02 13:34:44;;;;;;;;;;;;;;;11.28;38.15;103094.44;6154800;23;19920;-79
2021/03/02 13:37:14;;;;;;;;;;;;;;;11.20;38.64;103088.19;6127489;23;19983;-79
2021/03/02 13:39:42;;;;;;;;;;;;;;;11.07;40.06;103084.56;6153582;23;19925;-76
2021/03/02 13:42:09;;;;;;;;;;;;;;;11.00;40.56;103086.28;6131873;23;20258;-77
2021/03/02 13:44:36;;;;;;;;;;;;;;;10.92;40.95;103075.63;6131697;23;19921;-76